Time;durP1;ratioP1;P1;durP2;ratioP2;P2;SDS_P1;SDS_P2;PMS_P1;PMS_P2;Temp;Humidity;BMP_temperature;BMP_pressure;BME280_temperature;BME280_humidity;BME280_pressure;Samples;Min_cycle;Max_cycle;Signal;HPM_P1;HPM_P2
2022/02/15 00:02:09;;;;;;;12.90;1.90;;;6.40;99.90;;;;;;5006100;28;25059;-70
2022/02/15 00:04:34;;;;;;;13.07;1.95;;;6.30;99.90;;;;;;5006306;28;25088;-69
2022/02/15 00:07:00;;;;;;;15.50;1.77;;;6.40;99.90;;;;;;5010653;28;25058;-70
2022/02/15 00:09:29;;;;;;;7.03;2.28;;;6.40;99.90;;;;;;5018572;28;25121;-69
2022/02/15 00:11:54;;;;;;;11.57;1.73;;;6.40;99.90;;;;;;5025540;28;25142;-68
2022/02/15 00:14:23;;;;;;;6.72;1.60;;;6.40;99.90;;;;;;5018510;28;25075;-69
2022/02/15 00:16:50;;;;;;;10.68;2.15;;;6.50;99.90;;;;;;5027546;28;25069;-69
2022/02/15 00:19:17;;;;;;;8.90;1.60;;;6.50;99.90;;;;;;5029532;28;25077;-66
2022/02/15 00:21:48;;;;;;;12.00;1.98;;;6.60;99.90;;;;;;5030273;28;25064;-71
2022/02/15 00:24:13;;;;;;;11.93;1.70;;;6.50;99.90;;;;;;5014761;28;25092;-70
2022/02/15 00:26:39;;;;;;;10.68;1.83;;;6.50;99.90;;;;;;5029258;28;25058;-68
2022/02/15 00:29:04;;;;;;;7.32;1.45;;;6.50;99.90;;;;;;5037351;28;25064;-70
2022/02/15 00:31:30;;;;;;;10.55;1.52;;;6.50;99.90;;;;;;5034820;28;25068;-68
2022/02/15 00:33:56;;;;;;;10.60;2.53;;;6.50;99.90;;;;;;5037768;28;25094;-67
2022/02/15 00:36:24;;;;;;;10.23;2.13;;;6.50;99.90;;;;;;5035167;28;25073;-69
2022/02/15 00:38:50;;;;;;;4.93;1.95;;;6.40;99.90;;;;;;5025528;28;25118;-70
2022/02/15 00:41:16;;;;;;;7.05;2.50;;;6.30;99.90;;;;;;5011443;28;25123;-70
2022/02/15 00:43:41;;;;;;;10.13;2.50;;;6.30;99.90;;;;;;5011412;28;25072;-68
2022/02/15 00:46:07;;;;;;;6.78;1.73;;;6.30;99.90;;;;;;5023548;28;25138;-68
2022/02/15 00:48:33;;;;;;;7.03;2.20;;;6.30;99.90;;;;;;5017102;28;25043;-69
2022/02/15 00:50:59;;;;;;;7.38;2.25;;;6.30;99.90;;;;;;5014125;28;25055;-70
2022/02/15 00:53:25;;;;;;;11.70;2.33;;;6.30;99.90;;;;;;5013592;28;25132;-68
2022/02/15 00:55:50;;;;;;;11.25;2.20;;;6.30;99.90;;;;;;5013216;28;25119;-69
2022/02/15 00:58:16;;;;;;;7.47;2.13;;;6.30;99.90;;;;;;5005362;28;25112;-69
2022/02/15 01:00:41;;;;;;;17.50;2.63;;;6.20;99.90;;;;;;5015066;28;25139;-69
2022/02/15 01:03:07;;;;;;;14.48;2.67;;;6.30;99.90;;;;;;5011576;28;25073;-66
2022/02/15 01:05:33;;;;;;;7.38;2.30;;;6.40;99.90;;;;;;5010299;28;25060;-67
2022/02/15 01:07:58;;;;;;;9.18;2.33;;;6.40;99.90;;;;;;5006836;28;25067;-69
2022/02/15 01:10:24;;;;;;;9.90;2.50;;;6.40;99.90;;;;;;5005562;28;25134;-69
2022/02/15 01:12:50;;;;;;;10.18;2.58;;;6.40;99.90;;;;;;5015229;28;25123;-67
2022/02/15 01:15:16;;;;;;;10.98;2.53;;;6.30;99.90;;;;;;5004440;28;25089;-68
2022/02/15 01:17:46;;;;;;;9.65;2.75;;;6.30;99.90;;;;;;5008128;28;25141;-68
2022/02/15 01:20:12;;;;;;;11.80;3.60;;;6.30;99.90;;;;;;5019837;28;25009;-67
2022/02/15 01:22:39;;;;;;;6.97;2.67;;;6.30;99.90;;;;;;5010441;28;25072;-70
2022/02/15 01:25:05;;;;;;;11.02;2.90;;;6.30;99.90;;;;;;5011738;28;25044;-69
2022/02/15 01:27:30;;;;;;;8.38;3.03;;;6.30;99.90;;;;;;5028924;28;25078;-68
2022/02/15 01:29:56;;;;;;;9.20;2.63;;;6.30;99.90;;;;;;5029218;28;25064;-69
2022/02/15 01:32:22;;;;;;;6.05;2.60;;;6.30;99.90;;;;;;5027348;28;25143;-69
2022/02/15 01:34:48;;;;;;;6.93;3.47;;;6.30;99.90;;;;;;5008431;28;25118;-70
2022/02/15 01:37:13;;;;;;;10.32;2.97;;;6.20;99.90;;;;;;4990981;28;25121;-67
2022/02/15 01:39:39;;;;;;;10.32;3.55;;;6.30;99.90;;;;;;5007849;28;25090;-68
2022/02/15 01:44:53;;;;;;;8.23;3.50;;;6.40;99.90;;;;;;4989547;28;25064;-68
2022/02/15 01:47:24;;;;;;;13.13;3.58;;;6.40;99.90;;;;;;5024460;28;25132;-68
2022/02/15 01:49:51;;;;;;;11.60;3.28;;;6.40;99.90;;;;;;5006295;28;25090;-71
2022/02/15 01:52:20;;;;;;;13.27;3.03;;;6.50;99.90;;;;;;5016016;28;25166;-71
2022/02/15 01:54:55;;;;;;;9.05;3.08;;;6.50;99.90;;;;;;5009179;28;25057;-69
2022/02/15 01:57:22;;;;;;;9.32;3.00;;;6.50;99.90;;;;;;5008810;28;25138;-72
2022/02/15 01:59:48;;;;;;;12.10;3.42;;;6.40;99.90;;;;;;5028300;28;25089;-69
2022/02/15 02:02:17;;;;;;;12.60;3.38;;;6.30;99.90;;;;;;5028229;28;25094;-67
2022/02/15 02:07:28;;;;;;;4.50;2.88;;;6.40;99.90;;;;;;5009380;28;25049;-69
2022/02/15 02:09:54;;;;;;;14.27;3.95;;;6.50;99.90;;;;;;5027729;28;25112;-69
2022/02/15 02:12:21;;;;;;;13.20;3.42;;;6.40;99.90;;;;;;5016084;28;25125;-69
2022/02/15 02:15:05;;;;;;;10.75;3.42;;;6.50;99.90;;;;;;5023919;28;25067;-70
2022/02/15 02:17:30;;;;;;;9.73;3.60;;;6.50;99.90;;;;;;5007610;28;25069;-69
2022/02/15 02:19:57;;;;;;;9.55;3.20;;;6.50;99.90;;;;;;5010473;28;25113;-69
2022/02/15 02:22:24;;;;;;;7.53;3.45;;;6.60;99.90;;;;;;5021515;28;25094;-69
2022/02/15 02:24:51;;;;;;;8.40;3.60;;;6.60;99.90;;;;;;5011930;28;25078;-69
2022/02/15 02:27:20;;;;;;;13.90;4.10;;;6.50;99.90;;;;;;5027767;28;25128;-69
2022/02/15 02:29:45;;;;;;;9.93;3.83;;;6.50;99.90;;;;;;5008285;28;25068;-69
2022/02/15 02:32:11;;;;;;;12.23;4.28;;;6.50;99.90;;;;;;5019800;28;25127;-69
2022/02/15 02:34:37;;;;;;;8.27;3.78;;;6.50;99.90;;;;;;5007194;28;25124;-69
2022/02/15 02:37:02;;;;;;;11.77;4.22;;;6.50;99.90;;;;;;4993048;28;25056;-70
2022/02/15 02:39:28;;;;;;;14.55;3.85;;;6.60;99.90;;;;;;5026760;28;25083;-70
2022/02/15 02:41:54;;;;;;;8.48;4.30;;;6.60;99.90;;;;;;5028807;28;25066;-68
2022/02/15 02:44:20;;;;;;;10.95;4.40;;;6.60;99.90;;;;;;5028066;28;25153;-69
2022/02/15 02:46:45;;;;;;;9.20;4.05;;;6.60;99.90;;;;;;5016051;28;25087;-69
2022/02/15 02:49:11;;;;;;;5.72;3.28;;;6.50;99.90;;;;;;5023245;28;25083;-69
2022/02/15 02:51:37;;;;;;;12.35;3.72;;;6.60;99.90;;;;;;5028684;28;25063;-69
2022/02/15 02:54:02;;;;;;;13.20;4.10;;;6.60;99.90;;;;;;5013840;28;25066;-68
2022/02/15 02:56:28;;;;;;;9.00;4.03;;;6.50;99.90;;;;;;5021146;28;25101;-70
2022/02/15 02:58:53;;;;;;;7.85;3.92;;;6.50;99.90;;;;;;5023279;28;25086;-70
2022/02/15 03:01:19;;;;;;;7.32;4.05;;;6.50;99.90;;;;;;5026079;28;25151;-70
2022/02/15 03:03:44;;;;;;;8.40;4.78;;;6.50;99.90;;;;;;5022267;28;25097;-69
2022/02/15 03:06:10;;;;;;;9.82;4.95;;;6.50;99.90;;;;;;5007028;28;25067;-69
2022/02/15 03:08:35;;;;;;;12.30;4.97;;;6.50;99.90;;;;;;5007195;28;25064;-70
2022/02/15 03:11:01;;;;;;;10.77;4.88;;;6.60;99.90;;;;;;5006413;28;25074;-69
2022/02/15 03:13:27;;;;;;;12.55;5.60;;;6.50;99.90;;;;;;5014492;28;25110;-70
2022/02/15 03:15:52;;;;;;;12.27;5.53;;;6.60;99.90;;;;;;5017978;28;25123;-69
2022/02/15 03:18:18;;;;;;;19.65;6.55;;;6.70;99.90;;;;;;5017847;28;25063;-70
2022/02/15 03:20:43;;;;;;;12.80;7.30;;;6.70;99.90;;;;;;5016837;28;25089;-69
2022/02/15 03:23:10;;;;;;;10.68;7.20;;;6.60;99.90;;;;;;4990636;28;25112;-69
2022/02/15 03:25:36;;;;;;;15.65;7.35;;;6.60;99.90;;;;;;5006367;28;25106;-68
2022/02/15 03:28:01;;;;;;;15.82;8.95;;;6.60;99.90;;;;;;5004192;28;25110;-68
2022/02/15 03:30:27;;;;;;;16.27;8.52;;;6.70;99.90;;;;;;5015793;28;25087;-69
2022/02/15 03:32:52;;;;;;;19.08;9.57;;;6.60;99.90;;;;;;5012773;28;25088;-68
2022/02/15 03:35:19;;;;;;;19.05;10.57;;;6.60;99.90;;;;;;5017937;28;25060;-68
2022/02/15 03:37:45;;;;;;;16.33;10.63;;;6.60;99.90;;;;;;5024894;28;25131;-70
2022/02/15 03:40:11;;;;;;;22.77;10.75;;;6.60;99.90;;;;;;5017143;28;25112;-70
2022/02/15 03:45:21;;;;;;;20.75;9.73;;;6.70;99.90;;;;;;5028577;28;25102;-69
2022/02/15 03:47:46;;;;;;;22.10;10.00;;;6.70;99.90;;;;;;5022113;28;25091;-68
2022/02/15 03:50:12;;;;;;;23.23;10.80;;;6.70;99.90;;;;;;5007179;28;25054;-69
2022/02/15 03:52:40;;;;;;;18.02;9.75;;;6.70;99.90;;;;;;5012683;28;25089;-69
2022/02/15 03:55:06;;;;;;;21.15;9.57;;;6.70;99.90;;;;;;5012348;28;25134;-68
2022/02/15 03:57:35;;;;;;;20.42;10.25;;;6.80;99.90;;;;;;5012704;28;25053;-67
2022/02/15 04:00:06;;;;;;;21.65;9.85;;;6.80;99.90;;;;;;5016184;28;25076;-68
2022/02/15 04:02:32;;;;;;;21.15;9.18;;;6.80;99.90;;;;;;5010209;28;25057;-68
2022/02/15 04:04:58;;;;;;;25.17;8.55;;;6.90;99.90;;;;;;5006271;28;25098;-71
2022/02/15 04:07:23;;;;;;;23.67;8.73;;;6.90;99.90;;;;;;5025116;28;25159;-69
2022/02/15 04:09:49;;;;;;;13.15;7.55;;;6.90;99.90;;;;;;5017045;28;25140;-70
2022/02/15 04:12:15;;;;;;;22.80;8.43;;;6.80;99.90;;;;;;4996141;28;25126;-68
2022/02/15 04:14:40;;;;;;;20.20;8.95;;;6.80;99.90;;;;;;5006591;28;25076;-72
2022/02/15 04:17:06;;;;;;;23.48;9.13;;;6.80;99.90;;;;;;5006608;28;25135;-69
2022/02/15 04:19:31;;;;;;;23.88;8.95;;;6.90;99.90;;;;;;4977560;28;25130;-67
2022/02/15 04:21:57;;;;;;;24.75;8.27;;;6.90;99.90;;;;;;5016194;28;25116;-69
2022/02/15 04:24:23;;;;;;;23.13;8.45;;;6.90;99.90;;;;;;5007038;28;25069;-71
2022/02/15 04:26:48;;;;;;;22.50;7.80;;;6.90;99.90;;;;;;5012341;28;25107;-67
2022/02/15 04:29:14;;;;;;;19.88;8.07;;;7.00;99.90;;;;;;5008190;28;25099;-69
2022/02/15 04:31:40;;;;;;;20.90;7.78;;;7.00;99.90;;;;;;5009535;28;25100;-69
2022/02/15 04:34:06;;;;;;;21.98;6.95;;;7.00;99.90;;;;;;5011527;28;25070;-68
2022/02/15 04:36:31;;;;;;;18.67;7.60;;;7.00;99.90;;;;;;5008515;28;25068;-67
2022/02/15 04:38:57;;;;;;;19.63;6.35;;;6.90;99.90;;;;;;5007156;28;25054;-69
2022/02/15 04:41:22;;;;;;;14.40;6.03;;;6.90;99.90;;;;;;5001095;28;25104;-68
2022/02/15 04:43:48;;;;;;;18.60;5.82;;;7.00;99.90;;;;;;5006805;28;25138;-70
2022/02/15 04:46:13;;;;;;;15.23;5.45;;;7.00;99.90;;;;;;5002427;28;25048;-68
2022/02/15 04:48:39;;;;;;;17.58;6.15;;;7.00;99.90;;;;;;5012606;28;25073;-67
2022/02/15 04:51:04;;;;;;;18.10;5.47;;;7.00;99.90;;;;;;5017994;28;25078;-71
2022/02/15 04:53:30;;;;;;;20.98;6.85;;;7.00;99.90;;;;;;5014520;28;25065;-70
2022/02/15 04:55:56;;;;;;;15.23;6.10;;;7.00;99.90;;;;;;5015494;28;25075;-69
2022/02/15 04:58:21;;;;;;;20.27;5.35;;;7.00;99.90;;;;;;5006357;28;25118;-69
2022/02/15 05:00:49;;;;;;;17.23;6.03;;;7.00;99.90;;;;;;5011995;28;25069;-68
2022/02/15 05:03:15;;;;;;;22.05;6.47;;;7.00;99.90;;;;;;5018682;28;25056;-71
2022/02/15 05:05:41;;;;;;;13.30;5.30;;;7.00;99.90;;;;;;5013455;28;25061;-69
2022/02/15 05:08:06;;;;;;;19.30;4.50;;;7.00;99.90;;;;;;5033080;28;25072;-69
2022/02/15 05:10:32;;;;;;;15.73;4.93;;;7.00;99.90;;;;;;5034579;28;25095;-69
2022/02/15 05:12:57;;;;;;;25.27;4.93;;;7.00;99.90;;;;;;5033894;28;24955;-69
2022/02/15 05:15:23;;;;;;;20.00;4.53;;;7.00;99.90;;;;;;5026734;28;25097;-69
2022/02/15 05:17:57;;;;;;;22.10;5.30;;;7.00;99.90;;;;;;5027013;28;25062;-70
2022/02/15 05:20:29;;;;;;;22.92;4.28;;;7.00;99.90;;;;;;5024909;28;25079;-69
2022/02/15 05:22:54;;;;;;;21.02;4.65;;;7.00;99.90;;;;;;5018478;28;25112;-70
2022/02/15 05:25:20;;;;;;;24.58;4.30;;;7.00;99.90;;;;;;5025964;28;25147;-68
2022/02/15 05:27:45;;;;;;;19.60;4.70;;;7.00;99.90;;;;;;5041600;28;25144;-70
2022/02/15 05:30:11;;;;;;;26.35;4.35;;;7.00;99.90;;;;;;5019883;28;25136;-70
2022/02/15 05:32:38;;;;;;;20.38;4.22;;;7.00;99.90;;;;;;5020283;28;25057;-71
2022/02/15 05:35:08;;;;;;;15.73;3.55;;;7.10;99.90;;;;;;5019760;28;25070;-68
2022/02/15 05:37:34;;;;;;;13.93;3.65;;;7.10;99.90;;;;;;5038898;28;25151;-69
2022/02/15 05:40:00;;;;;;;26.27;4.50;;;7.10;99.90;;;;;;5039732;28;25070;-69
2022/02/15 05:42:25;;;;;;;26.05;3.78;;;7.10;99.90;;;;;;5042510;28;25056;-70
2022/02/15 05:44:51;;;;;;;15.60;3.75;;;7.10;99.90;;;;;;5029222;28;25175;-70
2022/02/15 05:47:20;;;;;;;15.93;2.88;;;7.10;99.90;;;;;;5029702;28;25105;-70
2022/02/15 05:52:30;;;;;;;24.33;3.70;;;7.20;99.90;;;;;;5011130;28;25142;-68
2022/02/15 05:54:55;;;;;;;15.93;4.10;;;7.10;99.90;;;;;;5019912;28;25118;-68
2022/02/15 05:57:21;;;;;;;22.98;4.47;;;7.10;99.90;;;;;;5017137;28;25170;-68
2022/02/15 05:59:47;;;;;;;19.02;3.85;;;7.10;99.90;;;;;;5008069;28;25070;-68
2022/02/15 06:02:13;;;;;;;23.35;4.93;;;7.10;99.90;;;;;;5012160;28;25155;-68
2022/02/15 06:04:38;;;;;;;19.08;3.63;;;7.10;99.90;;;;;;5010664;28;25059;-69
2022/02/15 06:07:05;;;;;;;25.42;3.88;;;7.00;99.90;;;;;;4999996;28;25027;-68
2022/02/15 06:09:31;;;;;;;19.60;3.88;;;7.10;99.90;;;;;;5026400;28;25158;-68
2022/02/15 06:11:56;;;;;;;26.42;4.30;;;7.00;99.90;;;;;;5012611;28;25126;-69
2022/02/15 06:14:22;;;;;;;23.73;4.47;;;7.00;99.90;;;;;;5013755;28;25169;-70
2022/02/15 06:16:47;;;;;;;21.25;4.95;;;7.00;99.90;;;;;;5009629;28;25070;-68
2022/02/15 06:19:13;;;;;;;31.58;4.80;;;6.90;99.90;;;;;;5011498;28;25082;-69
2022/02/15 06:21:38;;;;;;;16.13;4.50;;;7.00;99.90;;;;;;5013755;28;25071;-69
2022/02/15 06:24:04;;;;;;;16.83;3.92;;;6.90;99.90;;;;;;4996562;28;25058;-68
2022/02/15 06:26:30;;;;;;;28.10;4.97;;;6.90;99.90;;;;;;5016261;28;25068;-70
2022/02/15 06:28:58;;;;;;;25.15;4.25;;;6.90;99.90;;;;;;4997162;28;25123;-68
2022/02/15 06:31:23;;;;;;;18.50;3.85;;;6.90;99.90;;;;;;5008726;28;25082;-68
2022/02/15 06:33:49;;;;;;;19.13;3.88;;;6.80;99.90;;;;;;5005372;28;25090;-68
2022/02/15 06:36:14;;;;;;;25.58;5.15;;;6.80;99.90;;;;;;4997066;28;25069;-68
2022/02/15 06:38:40;;;;;;;23.60;5.10;;;6.80;99.90;;;;;;5003550;28;25146;-68
2022/02/15 06:41:05;;;;;;;18.73;3.83;;;6.70;99.90;;;;;;5012163;28;25080;-67
2022/02/15 06:43:31;;;;;;;17.17;4.13;;;6.60;99.90;;;;;;4989036;28;25158;-68
2022/02/15 06:45:57;;;;;;;19.17;4.05;;;6.60;99.90;;;;;;5023272;28;25148;-69
2022/02/15 06:48:22;;;;;;;24.05;4.60;;;6.60;99.90;;;;;;5009614;28;25087;-69
2022/02/15 06:50:48;;;;;;;19.88;4.50;;;6.50;99.90;;;;;;5008298;28;25056;-69
2022/02/15 06:53:13;;;;;;;23.45;4.75;;;6.50;99.90;;;;;;5009413;28;25114;-68
2022/02/15 06:55:39;;;;;;;21.13;4.63;;;6.50;99.90;;;;;;5010718;28;25068;-67
2022/02/15 06:58:04;;;;;;;23.40;4.43;;;6.40;99.90;;;;;;5009636;28;25049;-66
2022/02/15 07:00:39;;;;;;;24.75;4.88;;;6.40;99.90;;;;;;5008565;28;25075;-68
2022/02/15 07:03:05;;;;;;;18.17;4.00;;;6.40;99.90;;;;;;5006524;28;25058;-69
2022/02/15 07:05:31;;;;;;;20.90;4.78;;;6.40;99.90;;;;;;5003287;28;25060;-71
2022/02/15 07:07:56;;;;;;;22.30;4.65;;;6.40;99.90;;;;;;5007883;28;25067;-69
2022/02/15 07:10:22;;;;;;;15.57;4.63;;;6.40;99.90;;;;;;5010951;28;25107;-68
2022/02/15 07:12:48;;;;;;;16.75;3.53;;;6.50;99.90;;;;;;5010431;28;25080;-69
2022/02/15 07:15:14;;;;;;;15.73;3.78;;;6.50;99.90;;;;;;5008941;28;25125;-67
2022/02/15 07:17:40;;;;;;;19.77;4.20;;;6.50;99.90;;;;;;5004213;28;25345;-67
2022/02/15 07:20:07;;;;;;;24.50;4.25;;;6.50;99.90;;;;;;5006003;28;25090;-67
2022/02/15 07:22:34;;;;;;;17.85;3.90;;;6.50;99.90;;;;;;5002298;28;25071;-66
2022/02/15 07:24:59;;;;;;;27.63;4.65;;;6.60;99.90;;;;;;5004404;28;25154;-72
2022/02/15 07:27:29;;;;;;;22.27;4.00;;;6.60;99.90;;;;;;4996642;28;25095;-69
2022/02/15 07:29:55;;;;;;;17.65;3.45;;;6.60;99.90;;;;;;5004741;28;25161;-68
2022/02/15 07:32:24;;;;;;;21.20;3.90;;;6.70;99.90;;;;;;5007049;28;25061;-68
2022/02/15 07:34:51;;;;;;;21.58;3.22;;;6.70;99.90;;;;;;5009555;28;25078;-70
2022/02/15 07:37:17;;;;;;;28.98;4.95;;;6.70;99.90;;;;;;5011119;28;25130;-68
2022/02/15 07:39:43;;;;;;;18.23;4.25;;;6.80;99.90;;;;;;5011807;28;25228;-68
2022/02/15 07:42:09;;;;;;;17.08;4.10;;;6.70;99.90;;;;;;5014230;28;25097;-69
2022/02/15 07:44:35;;;;;;;30.55;4.55;;;6.70;99.90;;;;;;5008472;28;25089;-68
2022/02/15 07:47:00;;;;;;;18.20;3.92;;;6.70;99.90;;;;;;5009701;28;25103;-69
2022/02/15 07:49:26;;;;;;;18.48;3.65;;;6.80;99.90;;;;;;5010373;28;25069;-71
2022/02/15 07:51:53;;;;;;;18.83;3.50;;;6.80;99.90;;;;;;5011057;28;25063;-70
2022/02/15 07:54:19;;;;;;;14.18;3.30;;;6.80;99.90;;;;;;5010545;28;25125;-72
2022/02/15 07:56:46;;;;;;;18.85;3.33;;;6.80;99.90;;;;;;5008607;28;25130;-71
2022/02/15 07:59:12;;;;;;;25.75;3.47;;;6.80;99.90;;;;;;5009399;28;25068;-70
2022/02/15 08:01:38;;;;;;;16.63;3.78;;;6.80;99.90;;;;;;5008970;28;25098;-71
2022/02/15 08:04:03;;;;;;;17.58;3.60;;;6.80;99.90;;;;;;5008107;28;25137;-70
2022/02/15 08:06:29;;;;;;;24.05;3.42;;;6.80;99.90;;;;;;5017053;28;25078;-70
2022/02/15 08:08:55;;;;;;;16.08;3.20;;;6.80;99.90;;;;;;5015964;28;25106;-70
2022/02/15 08:11:21;;;;;;;16.90;3.03;;;6.80;99.90;;;;;;5013192;28;25068;-73
2022/02/15 08:13:49;;;;;;;22.40;3.45;;;6.80;99.90;;;;;;5012558;28;25143;-69
2022/02/15 08:16:15;;;;;;;14.30;3.28;;;6.80;99.90;;;;;;5013097;28;25153;-70
2022/02/15 08:18:41;;;;;;;13.40;3.50;;;6.80;99.90;;;;;;5010579;28;25087;-69
2022/02/15 08:21:10;;;;;;;16.88;3.67;;;6.90;99.90;;;;;;5008765;28;25137;-70
2022/02/15 08:23:37;;;;;;;13.48;3.20;;;6.90;99.90;;;;;;5008373;28;25061;-71
2022/02/15 08:26:04;;;;;;;16.23;3.95;;;7.00;99.90;;;;;;4989732;28;25075;-71
2022/02/15 08:28:31;;;;;;;17.52;4.43;;;7.00;99.90;;;;;;5008144;28;25114;-70
2022/02/15 08:30:57;;;;;;;22.40;3.38;;;7.00;99.90;;;;;;5008024;28;25131;-68
2022/02/15 08:33:23;;;;;;;17.65;2.92;;;7.00;99.90;;;;;;5008342;28;25074;-70
2022/02/15 08:35:48;;;;;;;18.63;3.33;;;7.00;99.90;;;;;;4973722;28;25143;-68
2022/02/15 08:38:14;;;;;;;18.65;4.88;;;7.00;99.90;;;;;;5010507;28;25124;-70
2022/02/15 08:40:40;;;;;;;20.00;4.07;;;6.90;99.90;;;;;;5010376;28;25058;-69
2022/02/15 08:43:05;;;;;;;13.30;2.95;;;6.90;99.90;;;;;;5012802;28;25052;-70
2022/02/15 08:45:31;;;;;;;20.05;3.58;;;6.90;99.90;;;;;;5011228;28;25124;-69
2022/02/15 08:47:57;;;;;;;17.98;3.60;;;7.00;99.90;;;;;;5013751;28;25070;-68
2022/02/15 08:50:23;;;;;;;19.65;3.70;;;7.00;99.90;;;;;;5017155;28;25119;-70
2022/02/15 08:52:48;;;;;;;29.10;4.03;;;7.00;99.90;;;;;;5016475;28;25064;-72
2022/02/15 08:55:14;;;;;;;23.35;4.57;;;6.90;99.90;;;;;;5016531;28;25070;-71
2022/02/15 08:57:40;;;;;;;31.17;3.42;;;6.90;99.90;;;;;;5017064;28;25114;-70
2022/02/15 09:00:08;;;;;;;20.35;3.40;;;7.00;99.90;;;;;;5015581;28;25050;-71
2022/02/15 09:02:37;;;;;;;19.63;3.60;;;7.00;99.90;;;;;;5012242;28;25051;-70
2022/02/15 09:05:05;;;;;;;19.60;3.50;;;7.00;99.90;;;;;;5007954;28;25086;-70
2022/02/15 09:07:30;;;;;;;20.52;4.00;;;7.00;99.90;;;;;;5014546;28;25075;-70
2022/02/15 09:09:56;;;;;;;18.50;3.10;;;7.00;99.90;;;;;;5014547;28;25086;-69
2022/02/15 09:12:21;;;;;;;21.90;3.30;;;7.10;99.90;;;;;;5007614;28;25148;-71
2022/02/15 09:14:47;;;;;;;16.55;3.10;;;7.30;99.90;;;;;;5007741;28;25101;-70
2022/02/15 09:17:13;;;;;;;14.68;2.92;;;7.20;99.90;;;;;;5006806;28;25169;-69
2022/02/15 09:19:39;;;;;;;18.35;4.38;;;7.30;99.90;;;;;;5008531;28;25071;-69
2022/02/15 09:22:05;;;;;;;15.20;2.53;;;7.10;99.90;;;;;;5010853;28;25101;-71
2022/02/15 09:24:30;;;;;;;28.15;3.55;;;7.10;99.90;;;;;;5012271;28;25101;-69
2022/02/15 09:26:56;;;;;;;13.73;2.90;;;7.20;99.90;;;;;;5015275;28;25077;-70
2022/02/15 09:29:22;;;;;;;18.40;3.50;;;7.20;99.90;;;;;;5020285;28;25064;-69
2022/02/15 09:31:48;;;;;;;21.08;3.35;;;7.10;99.90;;;;;;5013920;28;25129;-70
2022/02/15 09:34:14;;;;;;;28.58;4.38;;;7.10;99.90;;;;;;4991361;28;25057;-70
2022/02/15 09:36:40;;;;;;;17.10;3.60;;;7.20;99.90;;;;;;5011422;28;25080;-69
2022/02/15 09:39:07;;;;;;;19.67;3.80;;;7.10;99.90;;;;;;4993527;28;25046;-70
2022/02/15 09:41:34;;;;;;;14.90;4.03;;;7.20;99.90;;;;;;5011024;28;25018;-71
2022/02/15 09:44:02;;;;;;;20.95;4.05;;;7.30;99.90;;;;;;5010749;28;25064;-68
2022/02/15 09:46:28;;;;;;;23.90;4.55;;;7.30;99.90;;;;;;5010158;28;25074;-68
2022/02/15 09:48:55;;;;;;;21.40;3.72;;;7.30;99.90;;;;;;5011629;28;25075;-70
2022/02/15 09:51:25;;;;;;;21.40;3.90;;;7.40;99.90;;;;;;5026536;28;25069;-69
2022/02/15 09:53:51;;;;;;;18.08;3.20;;;7.40;99.90;;;;;;4998921;28;25090;-69
2022/02/15 09:56:17;;;;;;;19.33;4.40;;;7.40;99.90;;;;;;5013517;28;25160;-71
2022/02/15 09:58:42;;;;;;;20.20;3.35;;;7.50;99.90;;;;;;5003324;28;25123;-70
2022/02/15 10:01:16;;;;;;;17.05;3.28;;;7.60;99.90;;;;;;5029526;28;25154;-70
2022/02/15 10:04:00;;;;;;;12.85;2.47;;;7.60;99.90;;;;;;5022976;28;25062;-70
2022/02/15 10:06:30;;;;;;;20.02;3.45;;;7.60;99.90;;;;;;5021842;28;25144;-70
2022/02/15 10:09:00;;;;;;;15.55;2.97;;;7.80;99.90;;;;;;5006542;28;25117;-69
2022/02/15 10:11:38;;;;;;;19.27;3.92;;;7.70;99.90;;;;;;5006229;28;25057;-68
2022/02/15 10:14:04;;;;;;;15.80;2.88;;;7.80;99.90;;;;;;5008738;28;25541;-69
2022/02/15 10:16:33;;;;;;;14.68;3.85;;;7.90;99.90;;;;;;5013215;28;25081;-71
2022/02/15 10:18:59;;;;;;;15.05;2.72;;;7.90;99.90;;;;;;5010355;28;25139;-69
2022/02/15 10:21:28;;;;;;;16.27;3.05;;;7.80;99.90;;;;;;5010458;28;25063;-71
2022/02/15 10:23:56;;;;;;;12.73;2.55;;;7.90;99.90;;;;;;4996921;28;25079;-70
2022/02/15 10:26:23;;;;;;;10.38;2.45;;;7.90;99.90;;;;;;5026226;28;25099;-71
2022/02/15 10:28:49;;;;;;;9.55;2.45;;;8.00;99.50;;;;;;5008822;28;25070;-71
2022/02/15 10:31:15;;;;;;;12.20;2.30;;;8.10;99.50;;;;;;4997561;28;25076;-70
2022/02/15 10:33:46;;;;;;;10.30;2.90;;;8.10;99.00;;;;;;5010477;28;25095;-70
2022/02/15 10:36:16;;;;;;;11.77;2.42;;;8.20;98.90;;;;;;4998942;28;25061;-69
2022/02/15 10:38:47;;;;;;;10.95;2.25;;;8.40;98.70;;;;;;5008395;28;25066;-70
2022/02/15 10:41:18;;;;;;;19.73;2.70;;;8.70;97.90;;;;;;5008436;28;25103;-70
2022/02/15 10:43:55;;;;;;;17.88;2.83;;;9.00;96.90;;;;;;5008729;28;25092;-70
2022/02/15 10:46:23;;;;;;;11.85;2.17;;;9.20;96.10;;;;;;5007675;28;24988;-72
2022/02/15 10:48:49;;;;;;;12.98;3.00;;;8.80;95.30;;;;;;5008635;28;25066;-71
2022/02/15 10:51:16;;;;;;;8.82;2.47;;;8.70;96.00;;;;;;5008284;28;25379;-69
2022/02/15 10:53:42;;;;;;;15.75;2.30;;;8.60;96.60;;;;;;5008569;28;25080;-69
2022/02/15 10:56:09;;;;;;;10.15;2.55;;;8.60;96.70;;;;;;5014175;28;25138;-72
2022/02/15 10:58:35;;;;;;;7.57;2.55;;;8.70;96.80;;;;;;5028720;28;25187;-70
2022/02/15 11:01:06;;;;;;;11.88;2.55;;;8.50;96.30;;;;;;5018633;28;25065;-69
2022/02/15 11:03:33;;;;;;;17.45;3.42;;;8.40;96.20;;;;;;5017764;28;25112;-69
2022/02/15 11:06:00;;;;;;;11.68;2.83;;;8.40;96.50;;;;;;4998108;28;25129;-69
2022/02/15 11:08:27;;;;;;;11.70;3.13;;;8.40;96.70;;;;;;5017348;28;25069;-70
2022/02/15 11:11:20;;;;;;;12.35;2.92;;;8.60;96.90;;;;;;5015706;28;25136;-72
2022/02/15 11:13:46;;;;;;;14.57;3.28;;;8.70;96.30;;;;;;4991969;28;25113;-69
2022/02/15 11:16:18;;;;;;;11.98;3.00;;;8.90;96.20;;;;;;5009101;28;25133;-68
2022/02/15 11:18:45;;;;;;;8.98;2.50;;;8.90;95.80;;;;;;5010310;28;25166;-69
2022/02/15 11:21:23;;;;;;;13.27;2.83;;;8.80;95.70;;;;;;4997447;28;25075;-69
2022/02/15 11:24:00;;;;;;;9.98;2.60;;;9.00;96.00;;;;;;5029594;28;25143;-69
2022/02/15 11:26:39;;;;;;;12.10;2.67;;;9.00;95.40;;;;;;4996789;28;25083;-69
2022/02/15 11:29:05;;;;;;;10.80;2.50;;;9.10;95.60;;;;;;5004195;28;25074;-69
2022/02/15 16:32:52;;;;;;;18.90;4.70;;;8.20;99.90;;;;;;5106951;27;1216705;-61
2022/02/15 16:35:18;;;;;;;17.30;4.93;;;8.30;99.90;;;;;;5106751;28;25068;-63
2022/02/15 16:37:43;;;;;;;15.68;5.05;;;8.30;99.90;;;;;;5102167;28;25147;-62
2022/02/15 16:40:12;;;;;;;18.17;4.70;;;8.30;99.90;;;;;;5103134;28;25077;-61
2022/02/15 16:42:37;;;;;;;23.33;4.82;;;8.30;99.90;;;;;;5102831;28;25064;-61
2022/02/15 16:45:03;;;;;;;13.93;3.95;;;8.30;99.90;;;;;;5104238;28;25077;-61
2022/02/15 16:47:29;;;;;;;16.50;3.97;;;8.30;99.90;;;;;;5106091;28;25089;-62
2022/02/15 16:49:54;;;;;;;23.02;4.88;;;8.30;99.90;;;;;;5105825;28;25156;-61
2022/02/15 16:52:23;;;;;;;16.00;4.30;;;8.30;99.90;;;;;;5106238;28;25050;-61
2022/02/15 16:54:52;;;;;;;14.98;3.67;;;8.30;99.90;;;;;;5101159;28;25060;-63
2022/02/15 16:57:18;;;;;;;19.05;3.65;;;8.30;99.90;;;;;;5099472;28;25087;-61
2022/02/15 16:59:44;;;;;;;15.63;4.32;;;8.30;99.90;;;;;;5110661;28;25143;-61
2022/02/15 17:02:10;;;;;;;13.35;3.50;;;8.30;99.90;;;;;;5102466;28;25099;-61
2022/02/15 17:04:37;;;;;;;17.45;4.72;;;8.30;99.90;;;;;;5099855;28;25076;-61
2022/02/15 17:07:06;;;;;;;19.00;4.50;;;8.30;99.90;;;;;;5104458;28;25116;-59
2022/02/15 17:09:32;;;;;;;18.60;4.30;;;8.20;99.90;;;;;;5078061;22;25146;-68
2022/02/15 17:12:00;;;;;;;20.23;4.75;;;8.20;99.90;;;;;;5016770;28;25135;-66
2022/02/15 17:14:28;;;;;;;15.57;4.50;;;8.20;99.90;;;;;;5024642;28;25113;-66
2022/02/15 17:16:54;;;;;;;15.02;5.05;;;8.20;99.90;;;;;;5024143;28;25065;-68
2022/02/15 17:19:20;;;;;;;13.05;3.97;;;8.20;99.90;;;;;;5016346;28;25068;-68
2022/02/15 17:21:46;;;;;;;14.27;4.13;;;8.10;99.90;;;;;;5005094;28;25083;-70
2022/02/15 17:24:12;;;;;;;14.90;4.40;;;8.10;99.90;;;;;;5004330;28;25079;-69
2022/02/15 17:26:38;;;;;;;13.38;4.30;;;8.10;99.90;;;;;;5004663;28;25159;-68
2022/02/15 17:29:04;;;;;;;19.70;4.95;;;8.10;99.90;;;;;;5004462;28;25082;-69
2022/02/15 17:31:31;;;;;;;15.93;3.72;;;8.10;99.90;;;;;;5003067;28;25096;-68
2022/02/15 17:33:57;;;;;;;11.52;3.83;;;8.10;99.90;;;;;;4996072;28;25060;-70
2022/02/15 17:36:23;;;;;;;11.70;4.07;;;8.10;99.90;;;;;;4988460;28;25058;-70
2022/02/15 17:38:49;;;;;;;12.85;3.95;;;8.10;99.90;;;;;;4997508;28;25132;-70
2022/02/15 17:41:14;;;;;;;19.67;4.65;;;8.10;99.90;;;;;;5004228;28;25156;-71
2022/02/15 17:43:40;;;;;;;15.40;3.88;;;8.10;99.90;;;;;;4994344;28;25178;-69
2022/02/15 17:46:06;;;;;;;15.80;4.70;;;8.10;99.90;;;;;;4991351;28;25167;-70
2022/02/15 17:48:31;;;;;;;11.75;3.88;;;8.10;99.90;;;;;;4990780;28;25079;-70
2022/02/15 17:50:59;;;;;;;11.27;4.32;;;8.10;99.90;;;;;;4991201;28;25103;-69
2022/02/15 17:53:25;;;;;;;12.85;3.78;;;8.10;99.90;;;;;;4990717;28;25156;-70
2022/02/15 17:55:50;;;;;;;15.85;4.22;;;8.10;99.90;;;;;;4990589;28;25064;-69
2022/02/15 17:58:17;;;;;;;13.02;4.28;;;8.10;99.90;;;;;;4990365;28;25157;-66